Saturday, December 16, 2017, 5:49 AM EST
Back to Local

KBTP, Butler, Butler County Airport/k W Scholter Field

Location: Renfrew, PA, United States Lat: 40.783
Local Time: 5:49 AM EST (10:49 GMT) Lon: -79.95
Time Zone: US/Eastern Elev: 1246 ft

Show me the last for .
Show Decoded

2017-12-16 05:14 METAR KBTP 161014Z AUTO 23011G17KT 3SM -SN OVC027 M03/M06 A2998 RMK AO2 P0000
                 FZRANO =
2017-12-16 04:56 METAR KBTP 160956Z AUTO 23010KT 9SM -SN BKN031 OVC038 M03/M07 A2997 RMK AO2
                 SLP171 P0000 T10281067 FZRANO =
2017-12-16 03:56 METAR KBTP 160856Z AUTO 23010KT 10SM -SN FEW029 BKN038 OVC046 M03/M07 A2998 RMK
                 AO2 SNB52 SLP175 P0000 60000 T10281072 51006 FZRANO =
2017-12-16 02:56 METAR KBTP 160756Z AUTO 22012G17KT 10SM FEW048 OVC100 M03/M07 A2998 RMK AO2
                 SNB05E18 SLP173 P0000 T10331072 FZRANO =
2017-12-16 01:56 METAR KBTP 160656Z AUTO 23008KT 10SM BKN036 OVC043 M03/M08 A2997 RMK AO2 SNE23
                 SLP171 P0000 T10331078 FZRANO =
2017-12-16 00:56 METAR KBTP 160556Z AUTO 24009KT 6SM -SN FEW013 OVC034 M03/M08 A2997 RMK AO2
                 SLP170 P0000 60000 T10331083 11033 21050 50008 FZRANO =
2017-12-15 23:56 METAR KBTP 160456Z AUTO 25009KT 10SM -SN OVC050 M04/M09 A2997 RMK AO2 SNE00B56
                 SLP174 P0000 T10391089 410281150 FZRANO =
2017-12-15 22:56 METAR KBTP 160356Z AUTO 25011G19KT 9SM -SN OVC044 M04/M09 A2997 RMK AO2 PK WND
                 26026/0338 SLP171 P0000 T10391089 FZRANO =
2017-12-15 21:56 METAR KBTP 160256Z AUTO 25014G26KT 5SM -SN OVC050 M04/M07 A2994 RMK AO2 PK WND
                 24026/0251 SNB15 SLP165 P0000 60000 T10391072 51017 FZRANO =
2017-12-15 20:56 METAR KBTP 160156Z AUTO 24010G19KT 10SM FEW026 OVC050 M04/M08 A2993 RMK AO2
                 SLP162 T10441078 FZRANO =
2017-12-15 19:56 METAR KBTP 160056Z AUTO 26010G18KT 9SM BKN055 M05/M08 A2991 RMK AO2 SNE53 SLP158
                 P0000 T10501078 FZRANO =
2017-12-15 19:45 METAR KBTP 160045Z AUTO 25011G16KT 9SM -SN FEW007 SCT011 OVC060 M05/M07 A2991
                 RMK AO2 P0000 FZRANO =
2017-12-15 19:35 METAR KBTP 160035Z AUTO 26007G15KT 3SM -SN BR FEW007 BKN013 BKN055 M05/M07 A2991
                 RMK AO2 P0000 FZRANO =
2017-12-15 19:29 METAR KBTP 160029Z AUTO 25012KT 1 1/4SM -SN BR FEW007 BKN013 OVC055 M04/M06
                 A2990 RMK AO2 P0000 FZRANO =
2017-12-15 19:24 METAR KBTP 160024Z AUTO 26010G15KT 3/4SM -SN BR FEW007 BKN013 OVC027 M04/M06
                 A2991 RMK AO2 P0000 FZRANO RVRNO =
2017-12-15 19:18 METAR KBTP 160018Z AUTO 28008KT 1SM -SN BR FEW007 BKN013 OVC028 M04/M06 A2990
                 RMK AO2 P0000 FZRANO RVRNO =
2017-12-15 19:12 METAR KBTP 160012Z AUTO 26010KT 2SM -SN BR BKN013 BKN022 OVC031 M04/M07 A2990
                 RMK AO2 VIS 1 1/4V4 P0000 FZRANO =
2017-12-15 18:56 METAR KBTP 152356Z AUTO 24011KT 4SM -SN BR FEW010 BKN027 OVC060 M04/M07 A2989
                 RMK AO2 SLP148 P0000 60000 T10441067 11028 21050 53008 FZRANO =
2017-12-15 18:28 METAR KBTP 152328Z AUTO 23012G16KT 4SM -SN BR FEW010 BKN016 OVC065 M04/M07 A2988
                 RMK AO2 P0000 FZRANO =
2017-12-15 18:20 METAR KBTP 152320Z AUTO 23011KT 2 1/2SM -SN SCT012 BKN025 OVC065 M04/M07 A2988
                 RMK AO2 P0000 FZRANO =
2017-12-15 17:56 METAR KBTP 152256Z AUTO 24012KT 7SM -SN FEW019 BKN026 OVC035 M04/M08 A2987 RMK
                 AO2 SNB00 SLP144 P0000 T10441078 FZRANO =
2017-12-15 17:53 METAR KBTP 152253Z AUTO 24011KT 8SM -SN FEW019 BKN026 OVC035 M04/M08 A2987 RMK
                 AO2 SNB00 P0000 FZRANO =
2017-12-15 16:56 METAR KBTP 152156Z AUTO 24012KT 9SM SCT033 BKN043 M04/M09 A2986 RMK AO2 SNB06E56
                 SLP140 P0000 T10391094 FZRANO =
2017-12-15 15:56 METAR KBTP 152056Z AUTO 24009KT 10SM OVC043 M04/M10 A2986 RMK AO2 SLP138
                 T10391100 56007 FZRANO =
2017-12-15 14:56 METAR KBTP 151956Z AUTO 24014G20KT 10SM SCT041 SCT049 BKN060 M04/M11 A2986 RMK
                 AO2 SLP138 T10391106 FZRANO =
2017-12-15 13:56 METAR KBTP 151856Z AUTO 23008KT 10SM FEW100 M03/M11 A2987 RMK AO2 SLP141
                 T10331106 FZRANO =
2017-12-15 12:56 METAR KBTP 151756Z AUTO 24008KT 10SM OVC100 M04/M11 A2988 RMK AO2 SNB20E31
                 SLP145 P0000 60000 T10441106 11044 21128 58022 FZRANO =
2017-12-15 11:56 METAR KBTP 151656Z AUTO 22007KT 10SM BKN085 M06/M09 A2990 RMK AO2 SLP155
                 T10611094 FZRANO =
2017-12-15 10:56 METAR KBTP 151556Z AUTO 23006KT 9SM CLR M07/M09 A2994 RMK AO2 SLP166 T10671089
                 FZRANO =
2017-12-15 09:56 METAR KBTP 151456Z AUTO 00000KT 9SM SCT028 M11/M12 A2995 RMK AO2 SLP170
                 T11061122 55007 FZRANO =
2017-12-15 09:29 METAR KBTP 151429Z AUTO 28003KT 8SM BKN028 M11/M12 A2995 RMK AO2 FZRANO =
2017-12-15 08:56 METAR KBTP 151356Z AUTO 00000KT 9SM CLR M12/M13 A2995 RMK AO2 SLP171 T11171128
                 FZRANO =
2017-12-15 07:56 METAR KBTP 151256Z AUTO 00000KT 9SM FEW030 M13/M14 A2995 RMK AO2 SLP174
                 T11281144 FZRANO =
2017-12-15 06:56 METAR KBTP 151156Z AUTO 00000KT 10SM BKN030 BKN120 M13/M14 A2997 RMK AO2 SLP179
                 70001 T11281144 11122 21150 56005 FZRANO =
2017-12-15 05:56 METAR KBTP 151056Z AUTO 00000KT 10SM CLR M14/M15 A2997 RMK AO2 SLP180 T11391150
                 FZRANO =

Support USWX by starting your Amazon purchase here.